createdAt,value
2018-01-19T00:01:06.582Z,44.50
2018-01-19T00:04:08.507Z,44.55
2018-01-19T00:07:10.470Z,44.41
2018-01-19T00:10:12.392Z,44.55
2018-01-19T00:13:14.387Z,44.60
2018-01-19T00:16:16.289Z,44.63
2018-01-19T00:19:18.306Z,44.53
2018-01-19T00:22:20.275Z,44.48
2018-01-19T00:25:22.191Z,44.48
2018-01-19T00:28:24.155Z,44.56
2018-01-19T00:31:26.095Z,44.57
2018-01-19T00:34:28.069Z,44.55
2018-01-19T00:37:29.974Z,44.55
2018-01-19T00:40:31.953Z,44.56
2018-01-19T00:43:33.863Z,44.48
2018-01-19T00:46:35.830Z,44.62
2018-01-19T00:49:37.976Z,44.58
2018-01-19T00:52:39.943Z,44.49
2018-01-19T00:55:41.860Z,44.64
2018-01-19T00:58:43.827Z,44.47
2018-01-19T01:01:45.962Z,44.54
2018-01-19T01:04:47.935Z,44.47
2018-01-19T01:07:49.842Z,44.46
2018-01-19T01:10:51.823Z,44.56
2018-01-19T01:13:53.764Z,44.60
2018-01-19T01:16:55.723Z,44.50
2018-01-19T01:19:57.643Z,44.51
2018-01-19T01:22:59.619Z,44.56
2018-01-19T01:26:01.638Z,44.58
2018-01-19T01:29:03.614Z,44.57
2018-01-19T01:32:05.526Z,44.62
2018-01-19T01:35:07.442Z,44.54
2018-01-19T01:38:09.415Z,44.51
2018-01-19T01:41:11.340Z,44.52
2018-01-19T01:44:13.299Z,44.43
2018-01-19T01:47:15.266Z,44.45
2018-01-19T01:50:18.234Z,44.38
2018-01-19T01:53:20.138Z,44.54
2018-01-19T01:56:22.119Z,44.61
2018-01-19T01:59:24.056Z,44.55
2018-01-19T02:02:26.018Z,44.46
2018-01-19T02:05:27.948Z,44.53
2018-01-19T02:08:29.907Z,44.51
2018-01-19T02:11:31.826Z,44.42
2018-01-19T02:14:33.800Z,44.42
2018-01-19T02:17:35.735Z,44.40
2018-01-19T02:20:37.694Z,44.58
2018-01-19T02:23:39.610Z,44.31
2018-01-19T02:26:41.599Z,44.42
2018-01-19T02:29:43.506Z,44.47
2018-01-19T02:32:45.505Z,44.58
2018-01-19T02:35:47.498Z,44.49
2018-01-19T02:38:49.514Z,44.50
2018-01-19T02:41:51.474Z,44.45
2018-01-19T02:44:53.391Z,44.45
2018-01-19T02:47:55.375Z,44.42
2018-01-19T02:50:57.296Z,44.37
2018-01-19T02:53:59.352Z,44.45
2018-01-19T02:57:01.275Z,44.50
2018-01-19T03:00:03.288Z,44.38
2018-01-19T03:03:06.311Z,44.55
2018-01-19T03:06:08.271Z,44.41
2018-01-19T03:09:10.195Z,44.68
2018-01-19T03:12:12.176Z,44.45
2018-01-19T03:15:14.128Z,44.43
2018-01-19T03:18:16.055Z,44.45
2018-01-19T03:21:17.987Z,44.55
2018-01-19T03:24:19.875Z,44.54
2018-01-19T03:27:21.803Z,44.57
2018-01-19T03:30:23.772Z,44.51
2018-01-19T03:33:25.786Z,44.42
2018-01-19T03:36:27.767Z,44.49
2018-01-19T03:39:29.693Z,44.50
2018-01-19T03:42:31.651Z,44.41
2018-01-19T03:45:33.591Z,44.46
2018-01-19T03:48:35.566Z,44.50
2018-01-19T03:51:37.543Z,44.52
2018-01-19T03:54:39.455Z,44.37
2018-01-19T03:57:41.443Z,44.46
2018-01-19T04:00:43.450Z,44.57
2018-01-19T04:03:45.458Z,44.41
2018-01-19T04:06:47.683Z,44.49
2018-01-19T04:09:49.687Z,44.48
2018-01-19T04:12:51.666Z,44.48
2018-01-19T04:15:53.666Z,44.48
2018-01-19T04:18:55.646Z,44.49
2018-01-19T04:21:57.563Z,44.41
2018-01-19T04:24:59.547Z,44.26
2018-01-19T04:28:01.455Z,44.55
2018-01-19T04:31:03.354Z,44.39
2018-01-19T04:34:05.275Z,44.47
2018-01-19T04:37:07.167Z,44.41
2018-01-19T04:40:09.054Z,44.39
2018-01-19T04:43:10.939Z,44.48
2018-01-19T04:46:12.845Z,44.48
2018-01-19T04:49:14.728Z,44.32
2018-01-19T04:52:16.640Z,44.31
2018-01-19T04:55:18.547Z,44.39
2018-01-19T04:58:20.419Z,44.44
2018-01-19T05:01:22.336Z,44.44
2018-01-19T05:04:24.225Z,44.35
2018-01-19T05:07:26.435Z,44.45
2018-01-19T05:10:28.315Z,44.47
2018-01-19T05:13:30.226Z,44.49
2018-01-19T05:16:32.110Z,44.35
2018-01-19T05:19:34.003Z,44.48
2018-01-19T05:22:35.888Z,44.44
2018-01-19T05:25:37.808Z,44.36
2018-01-19T05:28:39.779Z,44.19
2018-01-19T05:31:41.707Z,44.09
2018-01-19T05:34:43.663Z,44.14
2018-01-19T05:37:45.586Z,44.05
2018-01-19T05:40:47.719Z,44.01
2018-01-19T05:43:49.678Z,43.86
2018-01-19T05:46:51.731Z,43.97
2018-01-19T05:49:53.714Z,43.87
2018-01-19T05:52:55.695Z,44.01
2018-01-19T05:55:57.806Z,43.99
2018-01-19T05:58:59.787Z,43.96
2018-01-19T06:02:01.703Z,43.87
2018-01-19T06:05:03.627Z,43.82
2018-01-19T06:08:05.559Z,43.90
2018-01-19T06:11:07.484Z,43.94
2018-01-19T06:14:09.450Z,43.87
2018-01-19T06:17:11.487Z,43.85
2018-01-19T06:20:14.483Z,43.85
2018-01-19T06:23:16.407Z,43.90
2018-01-19T06:26:18.382Z,43.90
2018-01-19T06:29:20.298Z,43.90
2018-01-19T06:32:22.168Z,43.90
2018-01-19T06:35:24.202Z,43.97
2018-01-19T06:38:26.078Z,43.89
2018-01-19T06:41:28.031Z,43.84
2018-01-19T06:44:29.908Z,43.80
2018-01-19T06:47:31.827Z,43.81
2018-01-19T06:50:33.768Z,43.83
2018-01-19T06:53:35.619Z,43.77
2018-01-19T06:56:37.507Z,43.78
2018-01-19T06:59:39.398Z,43.74
2018-01-19T07:02:41.290Z,43.79
2018-01-19T07:05:43.342Z,43.74
2018-01-19T07:08:45.190Z,43.75
2018-01-19T07:11:47.354Z,43.77
2018-01-19T07:14:49.239Z,43.70
2018-01-19T07:17:51.360Z,43.74
2018-01-19T07:20:53.242Z,43.72
2018-01-19T07:23:55.255Z,43.73
2018-01-19T07:26:57.177Z,43.74
2018-01-19T07:29:59.042Z,43.85
2018-01-19T07:33:00.959Z,43.77
2018-01-19T07:36:02.963Z,43.76
2018-01-19T07:39:04.849Z,43.73
2018-01-19T07:42:06.787Z,43.75
2018-01-19T07:45:08.703Z,43.78
2018-01-19T07:48:10.663Z,43.80
2018-01-19T07:51:12.555Z,43.67
2018-01-19T07:54:14.738Z,43.79
2018-01-19T07:57:16.672Z,42.67
2018-01-19T08:00:18.559Z,42.27
2018-01-19T08:03:20.484Z,42.10
2018-01-19T08:06:22.355Z,42.22
2018-01-19T08:09:24.292Z,41.93
2018-01-19T08:12:26.203Z,41.54
2018-01-19T08:15:28.099Z,42.03
2018-01-19T08:18:29.981Z,42.26
2018-01-19T08:21:31.899Z,42.48
2018-01-19T08:24:33.770Z,42.64
2018-01-19T08:27:35.679Z,42.76
2018-01-19T08:30:37.595Z,42.75
2018-01-19T08:33:39.519Z,42.77
2018-01-19T08:36:41.396Z,42.80
2018-01-19T08:39:43.334Z,42.82
2018-01-19T08:42:45.202Z,42.93
2018-01-19T08:45:47.271Z,42.95
2018-01-19T08:48:49.159Z,42.99
2018-01-19T08:51:51.075Z,43.01
2018-01-19T08:54:52.960Z,43.05
2018-01-19T08:57:55.059Z,42.99
2018-01-19T09:00:56.947Z,43.13
2018-01-19T09:03:58.887Z,43.10
2018-01-19T09:07:00.824Z,43.10
2018-01-19T09:10:02.767Z,43.09
2018-01-19T09:13:04.640Z,43.21
2018-01-19T09:16:06.551Z,43.14
2018-01-19T09:19:08.435Z,43.25
2018-01-19T09:22:10.634Z,43.29
2018-01-19T09:25:12.735Z,43.29
2018-01-19T09:28:14.671Z,43.16
2018-01-19T09:31:17.820Z,43.22
2018-01-19T09:34:19.699Z,43.14
2018-01-19T09:37:21.960Z,43.23
2018-01-19T09:40:23.840Z,43.21
2018-01-19T09:43:25.780Z,43.25
2018-01-19T09:46:27.767Z,43.32
2018-01-19T09:49:29.668Z,43.38
2018-01-19T09:52:31.957Z,43.19
2018-01-19T09:55:33.825Z,43.32
2018-01-19T09:58:35.843Z,43.27
2018-01-19T10:01:37.718Z,43.29
2018-01-19T10:04:39.915Z,43.35
2018-01-19T10:07:41.867Z,43.23
2018-01-19T10:10:43.763Z,43.37
2018-01-19T10:13:45.839Z,43.29
2018-01-19T10:16:48.738Z,43.31
2018-01-19T10:19:50.658Z,43.26
2018-01-19T10:22:52.583Z,43.31
2018-01-19T10:25:54.467Z,43.31
2018-01-19T10:28:56.451Z,43.29
2018-01-19T10:31:58.419Z,43.15
2018-01-19T10:35:00.476Z,43.32
2018-01-19T10:38:02.430Z,43.28
2018-01-19T10:41:04.310Z,43.20
2018-01-19T10:44:06.274Z,43.24
2018-01-19T10:47:08.201Z,43.23
2018-01-19T10:50:10.111Z,43.31
2018-01-19T10:53:12.004Z,43.18
2018-01-19T10:56:14.981Z,43.22
2018-01-19T10:59:17.031Z,43.21
2018-01-19T11:02:19.359Z,43.21
2018-01-19T11:05:21.468Z,43.26
2018-01-19T11:08:23.338Z,43.24
2018-01-19T11:11:25.250Z,43.26
2018-01-19T11:14:27.122Z,43.21
2018-01-19T11:17:29.073Z,43.39
2018-01-19T11:20:30.943Z,43.10
2018-01-19T11:23:32.875Z,43.12
2018-01-19T11:26:34.761Z,43.18
2018-01-19T11:29:36.670Z,43.19
2018-01-19T11:32:38.599Z,43.22
2018-01-19T11:35:40.494Z,43.25
2018-01-19T11:38:42.394Z,43.36
2018-01-19T11:41:44.275Z,43.34
2018-01-19T11:44:46.216Z,43.18
2018-01-19T11:47:48.071Z,43.21
2018-01-19T11:50:49.990Z,43.15
2018-01-19T11:53:51.919Z,43.02
2018-01-19T11:56:53.803Z,43.11
2018-01-19T11:59:56.007Z,43.06
2018-01-19T12:02:57.882Z,43.04
2018-01-19T12:05:59.804Z,43.14
2018-01-19T12:09:01.683Z,43.15
2018-01-19T12:12:03.816Z,43.13
2018-01-19T12:15:05.703Z,43.11
2018-01-19T12:18:07.619Z,43.20
2018-01-19T12:21:09.535Z,43.13
2018-01-19T12:24:11.605Z,43.11
2018-01-19T12:27:13.482Z,43.16
2018-01-19T12:30:15.436Z,43.14
2018-01-19T12:33:17.323Z,43.24
2018-01-19T12:36:19.269Z,43.27
2018-01-19T12:39:21.171Z,43.24
2018-01-19T12:42:23.087Z,43.20
2018-01-19T12:45:24.972Z,43.14
2018-01-19T12:48:26.891Z,43.29
2018-01-19T12:51:28.766Z,43.20
2018-01-19T12:54:30.711Z,43.18
2018-01-19T12:57:32.595Z,43.39
2018-01-19T13:00:34.534Z,43.19
2018-01-19T13:03:36.435Z,43.30
2018-01-19T13:06:38.319Z,43.25
2018-01-19T13:09:40.286Z,43.33
2018-01-19T13:12:42.163Z,43.27
2018-01-19T13:15:44.087Z,43.33
2018-01-19T13:18:45.975Z,43.36
2018-01-19T13:21:48.801Z,43.22
2018-01-19T13:24:50.679Z,43.29
2018-01-19T13:27:52.599Z,43.35
2018-01-19T13:30:54.476Z,43.43
2018-01-19T13:33:56.663Z,43.33
2018-01-19T13:36:58.534Z,43.33
2018-01-19T13:40:00.450Z,43.26
2018-01-19T13:43:02.555Z,43.31
2018-01-19T13:46:04.439Z,43.35
2018-01-19T13:49:06.549Z,43.28
2018-01-19T13:52:08.416Z,43.32
2018-01-19T13:55:10.333Z,43.23
2018-01-19T13:58:12.247Z,43.26
2018-01-19T14:01:14.153Z,43.22
2018-01-19T14:04:16.047Z,43.16
2018-01-19T14:07:18.988Z,43.24
2018-01-19T14:10:20.882Z,43.25
2018-01-19T14:13:22.791Z,43.24
2018-01-19T14:16:24.719Z,43.21
2018-01-19T14:19:26.899Z,43.29
2018-01-19T14:22:28.789Z,43.31
2018-01-19T14:25:30.690Z,43.18
2018-01-19T14:28:32.573Z,43.24
2018-01-19T14:31:34.715Z,43.39
2018-01-19T14:34:36.642Z,43.32
2018-01-19T14:37:38.546Z,43.26
2018-01-19T14:40:40.439Z,43.21
2018-01-19T14:43:42.380Z,43.29
2018-01-19T14:46:44.279Z,43.17
2018-01-19T14:49:46.206Z,43.28
2018-01-19T14:52:48.100Z,43.32
2018-01-19T14:55:50.012Z,43.24
2018-01-19T14:58:51.923Z,43.14
2018-01-19T15:01:53.848Z,43.28
2018-01-19T15:04:55.714Z,43.14
2018-01-19T15:07:57.651Z,43.19
2018-01-19T15:10:59.523Z,43.12
2018-01-19T15:14:01.651Z,43.13
2018-01-19T15:17:03.531Z,43.16
2018-01-19T15:20:05.459Z,43.29
2018-01-19T15:23:07.358Z,43.22
2018-01-19T15:26:09.267Z,43.20
2018-01-19T15:29:11.131Z,43.25
2018-01-19T15:32:13.072Z,43.01
2018-01-19T15:35:14.945Z,43.22
2018-01-19T15:38:16.875Z,43.21
2018-01-19T15:41:18.743Z,43.14
2018-01-19T15:44:20.644Z,43.18
2018-01-19T15:47:22.527Z,43.09
2018-01-19T15:50:24.690Z,43.18
2018-01-19T15:53:26.567Z,43.11
2018-01-19T15:56:28.479Z,43.02
2018-01-19T15:59:30.357Z,43.21
2018-01-19T16:02:32.436Z,43.06
2018-01-19T16:05:34.559Z,43.27
2018-01-19T16:08:36.476Z,43.18
2018-01-19T16:11:38.360Z,43.07
2018-01-19T16:14:40.275Z,43.30
2018-01-19T16:17:42.151Z,43.18
2018-01-19T16:20:44.068Z,43.21
2018-01-19T16:23:45.999Z,43.15
2018-01-19T16:26:47.947Z,43.07
2018-01-19T16:29:50.871Z,43.10
2018-01-19T16:32:53.030Z,43.19
2018-01-19T16:35:54.911Z,43.18
2018-01-19T16:38:56.814Z,43.28
2018-01-19T16:41:58.851Z,43.12
2018-01-19T16:45:00.767Z,43.08
2018-01-19T16:48:02.685Z,43.17
2018-01-19T16:51:04.635Z,43.17
2018-01-19T16:54:06.702Z,43.18
2018-01-19T16:57:08.587Z,43.26
2018-01-19T17:00:10.518Z,43.19
2018-01-19T17:03:12.403Z,43.16
2018-01-19T17:06:14.326Z,43.22
2018-01-19T17:09:16.208Z,43.14
2018-01-19T17:12:18.142Z,43.20
2018-01-19T17:15:20.111Z,43.00
2018-01-19T17:18:22.056Z,42.89
2018-01-19T17:21:24.022Z,43.13
2018-01-19T17:24:25.989Z,43.04
2018-01-19T17:27:27.942Z,43.05
2018-01-19T17:30:29.888Z,43.07
2018-01-19T17:33:31.900Z,42.98
2018-01-19T17:36:34.238Z,43.17
2018-01-19T17:39:36.175Z,43.14
2018-01-19T17:42:38.331Z,43.04
2018-01-19T17:45:40.325Z,43.14
2018-01-19T17:48:42.463Z,43.17
2018-01-19T17:51:44.435Z,43.07
2018-01-19T17:54:46.426Z,43.19
2018-01-19T17:57:48.411Z,43.17
2018-01-19T18:00:50.307Z,43.13
2018-01-19T18:03:52.187Z,43.18
2018-01-19T18:06:54.099Z,43.24
2018-01-19T18:09:56.031Z,43.14
2018-01-19T18:12:57.924Z,43.18
2018-01-19T18:15:59.786Z,43.22
2018-01-19T18:19:01.707Z,43.18
2018-01-19T18:22:03.589Z,43.19
2018-01-19T18:25:05.511Z,43.30
2018-01-19T18:28:07.383Z,42.92
2018-01-19T18:31:09.295Z,42.21
2018-01-19T18:34:11.171Z,41.43
2018-01-19T18:37:13.403Z,41.82
2018-01-19T18:40:15.274Z,42.15
2018-01-19T18:43:17.186Z,42.33
2018-01-19T18:46:19.083Z,42.67
2018-01-19T18:49:21.887Z,42.68
2018-01-19T18:52:23.922Z,42.47
2018-01-19T18:55:25.794Z,42.48
2018-01-19T18:58:27.757Z,42.52
2018-01-19T19:01:29.655Z,42.59
2018-01-19T19:04:31.573Z,42.72
2018-01-19T19:07:33.480Z,42.77
2018-01-19T19:10:35.394Z,42.82
2018-01-19T19:13:37.286Z,42.79
2018-01-19T19:16:39.192Z,42.69
2018-01-19T19:19:41.123Z,41.02
2018-01-19T19:22:43.026Z,41.06
2018-01-19T19:25:44.915Z,41.41
2018-01-19T19:28:46.829Z,41.28
2018-01-19T19:31:48.747Z,41.42
2018-01-19T19:34:50.686Z,41.25
2018-01-19T19:37:52.579Z,41.49
2018-01-19T19:40:54.516Z,41.54
2018-01-19T19:43:56.386Z,41.72
2018-01-19T19:46:58.669Z,41.63
2018-01-19T19:50:00.540Z,41.75
2018-01-19T19:53:02.482Z,41.95
2018-01-19T19:56:04.355Z,41.95
2018-01-19T19:59:06.267Z,41.81
2018-01-19T20:02:08.172Z,41.98
2018-01-19T20:05:10.058Z,41.89
2018-01-19T20:08:11.943Z,41.66
2018-01-19T20:11:13.899Z,41.90
2018-01-19T20:14:15.759Z,41.90
2018-01-19T20:17:17.815Z,41.85
2018-01-19T20:20:19.715Z,41.89
2018-01-19T20:23:21.729Z,41.81
2018-01-19T20:26:23.905Z,41.77
2018-01-19T20:29:25.876Z,41.75
2018-01-19T20:32:27.842Z,41.70
2018-01-19T20:35:29.747Z,41.80
2018-01-19T20:38:31.632Z,42.08
2018-01-19T20:41:33.534Z,42.18
2018-01-19T20:44:35.403Z,42.21
2018-01-19T20:47:37.320Z,42.14
2018-01-19T20:50:39.192Z,41.89
2018-01-19T20:53:41.120Z,41.86
2018-01-19T20:56:43.012Z,41.71
2018-01-19T20:59:44.941Z,41.67
2018-01-19T21:02:46.839Z,41.85
2018-01-19T21:05:48.786Z,41.79
2018-01-19T21:08:50.812Z,41.77
2018-01-19T21:11:52.690Z,41.90
2018-01-19T21:14:54.609Z,41.77
2018-01-19T21:17:56.809Z,41.96
2018-01-19T21:20:59.058Z,41.77
2018-01-19T21:24:00.990Z,41.90
2018-01-19T21:27:02.871Z,41.91
2018-01-19T21:30:04.775Z,41.98
2018-01-19T21:33:06.662Z,41.98
2018-01-19T21:36:08.691Z,41.93
2018-01-19T21:39:10.591Z,41.89
2018-01-19T21:42:12.485Z,41.81
2018-01-19T21:45:14.364Z,42.01
2018-01-19T21:48:16.286Z,42.08
2018-01-19T21:51:18.159Z,42.04
2018-01-19T21:54:20.203Z,41.99
2018-01-19T21:57:22.066Z,42.02
2018-01-19T22:00:23.967Z,41.97
2018-01-19T22:03:25.855Z,42.08
2018-01-19T22:06:27.815Z,42.18
2018-01-19T22:09:30.561Z,42.18
2018-01-19T22:12:32.458Z,41.99
2018-01-19T22:15:34.472Z,42.03
2018-01-19T22:18:36.575Z,42.18
2018-01-19T22:21:38.618Z,42.12
2018-01-19T22:24:40.491Z,42.18
2018-01-19T22:27:42.419Z,42.16
2018-01-19T22:30:44.415Z,42.08
2018-01-19T22:33:46.330Z,42.36
2018-01-19T22:36:48.260Z,42.49
2018-01-19T22:39:50.254Z,42.51
2018-01-19T22:42:52.267Z,42.57
2018-01-19T22:45:54.261Z,42.70
2018-01-19T22:48:56.265Z,42.65
2018-01-19T22:51:58.231Z,42.70
2018-01-19T22:55:00.701Z,42.71
2018-01-19T22:58:02.648Z,42.79
2018-01-19T23:01:04.659Z,42.79
2018-01-19T23:04:06.638Z,42.77
2018-01-19T23:07:08.601Z,42.80
2018-01-19T23:10:10.534Z,42.83
2018-01-19T23:13:12.466Z,42.80
2018-01-19T23:16:14.467Z,42.77
2018-01-19T23:19:16.450Z,42.90
2018-01-19T23:22:18.772Z,42.90
2018-01-19T23:25:20.739Z,42.81
2018-01-19T23:28:22.646Z,42.79
2018-01-19T23:31:24.639Z,42.75
2018-01-19T23:34:26.543Z,42.96
2018-01-19T23:37:28.521Z,42.87
2018-01-19T23:40:30.458Z,42.95
2018-01-19T23:43:32.410Z,42.82
2018-01-19T23:46:34.335Z,42.89
2018-01-19T23:49:36.345Z,42.97
2018-01-19T23:52:38.306Z,42.97
2018-01-19T23:55:40.218Z,42.95
2018-01-19T23:58:42.202Z,43.01
